Matupa, Brazil
Current Conditions -  °F | °C
As of 6:00 PM on Wednesday 26 Nov 2014 (Local Time) from SBAT Reporting Station
Light Rain Light Rain  
Wind Chill: 82°   Ceiling: 9000
Heat Index: 88°   Visibility: 6mi
Dew Point: 73°   Wind: 3mph
Humidity: 74%   Direction: 150°SSE
Pressure: NA   Gusts: NA
Location:  10.06°S, 54.93°W
Report Text: SBAT 262100Z 15003KT 9999 -RA FEW027 FEW030TCU BKN090 28/23 Q1007 RETS
Loading
Personal Weather Stations






























Interactive Weather Map New forecast layout! Learn more

10-Day Weather Forecast

Advertisements
Track Severe Weather on mobile